createdAt,value
2023-04-10T00:01:36.448Z,71.63
2023-04-10T00:04:05.169Z,71.31
2023-04-10T00:06:35.539Z,70.71
2023-04-10T00:09:03.877Z,70.42
2023-04-10T00:11:32.180Z,71.31
2023-04-10T00:14:00.542Z,71.75
2023-04-10T00:16:28.952Z,71.27
2023-04-10T00:18:57.360Z,71.52
2023-04-10T00:21:26.420Z,70.53
2023-04-10T00:23:56.511Z,70.58
2023-04-10T00:26:26.422Z,70.18
2023-04-10T00:28:54.842Z,70.95
2023-04-10T00:31:23.261Z,69.35
2023-04-10T00:33:52.019Z,69.73
2023-04-10T00:36:21.341Z,69.84
2023-04-10T00:38:50.063Z,68.59
2023-04-10T00:41:19.832Z,68.66
2023-04-10T00:43:48.187Z,67.67
2023-04-10T00:46:16.897Z,68.00
2023-04-10T00:48:45.572Z,67.65
2023-04-10T00:51:13.949Z,67.05
2023-04-10T00:53:42.360Z,66.68
2023-04-10T00:56:12.738Z,66.72
2023-04-10T00:58:42.463Z,66.18
2023-04-10T01:01:11.512Z,66.15
2023-04-10T01:03:41.072Z,66.07
2023-04-10T01:06:17.888Z,65.95
2023-04-10T01:08:54.899Z,66.03
2023-04-10T01:11:37.058Z,65.85
2023-04-10T01:14:17.813Z,66.05
2023-04-10T01:16:53.406Z,66.08
2023-04-10T01:19:45.720Z,66.34
2023-04-10T01:22:17.725Z,66.91
2023-04-10T01:25:06.257Z,66.98
2023-04-10T01:27:46.606Z,67.38
2023-04-10T01:30:19.856Z,66.52
2023-04-10T01:32:50.093Z,66.41
2023-04-10T01:35:19.665Z,66.30
2023-04-10T01:37:51.817Z,66.43
2023-04-10T01:40:22.493Z,66.63
2023-04-10T01:42:54.365Z,66.39
2023-04-10T01:45:31.784Z,66.39
2023-04-10T01:48:00.882Z,66.07
2023-04-10T01:50:32.128Z,66.10
2023-04-10T01:53:02.357Z,66.24
2023-04-10T01:55:32.478Z,66.80
2023-04-10T01:58:01.599Z,67.32
2023-04-10T02:00:31.590Z,67.63
2023-04-10T02:03:00.066Z,68.11
2023-04-10T02:05:35.109Z,68.42
2023-04-10T02:08:10.353Z,68.75
2023-04-10T02:10:46.083Z,69.48
2023-04-10T02:13:16.578Z,69.56
2023-04-10T02:15:49.036Z,70.04
2023-04-10T02:18:19.279Z,70.41
2023-04-10T02:20:47.902Z,70.86
2023-04-10T02:23:19.348Z,71.05
2023-04-10T02:25:47.715Z,71.31
2023-04-10T02:28:16.048Z,71.50
2023-04-10T02:30:45.825Z,72.14
2023-04-10T02:33:14.352Z,73.52
2023-04-10T02:35:42.679Z,74.25
2023-04-10T02:38:11.030Z,75.28
2023-04-10T02:40:39.325Z,74.95
2023-04-10T02:43:07.932Z,75.45
2023-04-10T02:45:36.295Z,76.46
2023-04-10T02:48:07.655Z,77.01
2023-04-10T02:50:36.046Z,77.16
2023-04-10T02:53:04.435Z,77.17
2023-04-10T02:55:32.868Z,77.95
2023-04-10T02:58:01.248Z,78.85
2023-04-10T03:00:29.625Z,79.20
2023-04-10T03:02:58.379Z,79.36
2023-04-10T03:05:29.078Z,79.25
2023-04-10T03:07:57.482Z,79.09
2023-04-10T03:10:25.825Z,80.08
2023-04-10T03:12:54.325Z,80.67
2023-04-10T03:15:22.673Z,80.84
2023-04-10T03:17:51.023Z,81.36
2023-04-10T03:20:19.571Z,81.61
2023-04-10T03:22:49.400Z,80.34
2023-04-10T03:25:17.827Z,81.06
2023-04-10T03:27:46.146Z,81.20
2023-04-10T03:30:14.895Z,82.17
2023-04-10T03:32:43.351Z,81.81
2023-04-10T03:35:12.032Z,82.75
2023-04-10T03:37:42.283Z,83.41
2023-04-10T03:40:13.663Z,83.61
2023-04-10T03:42:42.012Z,84.07
2023-04-10T03:45:11.515Z,84.57
2023-04-10T03:47:40.007Z,84.60
2023-04-10T03:50:08.943Z,84.83
2023-04-10T03:52:37.341Z,85.08
2023-04-10T03:55:06.269Z,85.79
2023-04-10T03:57:36.160Z,85.47
2023-04-10T04:00:05.883Z,85.79
2023-04-10T04:02:34.615Z,86.26
2023-04-10T04:05:03.126Z,86.13
2023-04-10T04:07:31.722Z,85.92
2023-04-10T04:10:00.449Z,85.84
2023-04-10T04:12:28.866Z,85.55
2023-04-10T04:14:58.587Z,86.01
2023-04-10T04:17:27.137Z,85.53
2023-04-10T04:19:55.514Z,85.42
2023-04-10T04:22:23.859Z,84.31
2023-04-10T04:24:52.763Z,83.27
2023-04-10T04:27:21.871Z,82.52
2023-04-10T04:29:50.279Z,82.82
2023-04-10T04:32:29.236Z,82.76
2023-04-10T04:34:57.731Z,82.13
2023-04-10T04:37:26.236Z,81.48
2023-04-10T04:39:54.605Z,81.12
2023-04-10T04:42:22.964Z,81.00
2023-04-10T04:44:51.637Z,80.11
2023-04-10T04:47:20.156Z,79.43
2023-04-10T04:49:50.935Z,79.06
2023-04-10T04:52:19.360Z,78.30
2023-04-10T04:54:47.752Z,78.50
2023-04-10T04:57:16.156Z,78.13
2023-04-10T04:59:44.482Z,78.14
2023-04-10T05:02:12.864Z,77.59
2023-04-10T05:04:42.306Z,77.17
2023-04-10T05:07:13.629Z,77.23
2023-04-10T05:09:42.097Z,76.60
2023-04-10T05:12:10.869Z,77.32
2023-04-10T05:14:39.385Z,76.87
2023-04-10T05:17:07.705Z,76.59
2023-04-10T05:19:36.233Z,76.39
2023-04-10T05:22:04.699Z,75.67
2023-04-10T05:24:34.638Z,75.62
2023-04-10T05:27:03.166Z,75.15
2023-04-10T05:29:31.688Z,74.45
2023-04-10T05:32:00.067Z,74.58
2023-04-10T05:34:28.455Z,74.21
2023-04-10T05:36:58.907Z,73.56
2023-04-10T05:39:27.563Z,74.06
2023-04-10T05:41:58.387Z,73.78
2023-04-10T05:44:26.695Z,72.89
2023-04-10T05:46:54.970Z,72.76
2023-04-10T05:49:23.389Z,72.85
2023-04-10T05:51:52.857Z,72.54
2023-04-10T05:54:21.384Z,72.93
2023-04-10T05:56:49.695Z,73.21
2023-04-10T05:59:19.503Z,72.47
2023-04-10T06:01:48.123Z,72.21
2023-04-10T06:04:16.706Z,71.86
2023-04-10T06:06:45.224Z,72.06
2023-04-10T06:09:13.769Z,72.12
2023-04-10T06:11:42.105Z,71.95
2023-04-10T06:14:10.566Z,70.97
2023-04-10T06:16:40.417Z,70.41
2023-04-10T06:19:08.801Z,70.35
2023-04-10T06:21:37.240Z,70.64
2023-04-10T06:24:05.842Z,70.02
2023-04-10T06:26:34.207Z,69.43
2023-04-10T06:29:02.640Z,69.96
2023-04-10T06:31:34.491Z,70.49
2023-04-10T06:34:04.309Z,70.09
2023-04-10T06:36:33.108Z,69.85
2023-04-10T06:39:02.791Z,70.00
2023-04-10T06:41:31.286Z,68.75
2023-04-10T06:44:01.126Z,68.71
2023-04-10T06:46:31.708Z,67.47
2023-04-10T06:49:00.025Z,67.56
2023-04-10T06:51:29.760Z,67.59
2023-04-10T06:53:58.641Z,66.80
2023-04-10T06:56:27.196Z,65.63
2023-04-10T06:58:56.398Z,63.18
2023-04-10T07:01:26.085Z,63.29
2023-04-10T07:03:55.075Z,63.35
2023-04-10T07:06:23.746Z,62.67
2023-04-10T07:08:53.864Z,62.34
2023-04-10T07:11:22.288Z,62.06
2023-04-10T07:13:53.901Z,62.45
2023-04-10T07:16:22.355Z,62.44
2023-04-10T07:18:50.716Z,61.94
2023-04-10T07:21:19.029Z,62.27
2023-04-10T07:23:47.508Z,61.86
2023-04-10T07:26:17.458Z,61.65
2023-04-10T07:28:46.319Z,61.96
2023-04-10T07:31:15.269Z,61.51
2023-04-10T07:33:43.707Z,61.26
2023-04-10T07:36:12.290Z,61.62
2023-04-10T07:38:41.089Z,60.79
2023-04-10T07:41:09.838Z,60.84
2023-04-10T07:43:39.805Z,60.00
2023-04-10T07:46:08.656Z,60.85
2023-04-10T07:48:37.101Z,60.23
2023-04-10T07:51:09.269Z,59.08
2023-04-10T07:53:37.999Z,60.35
2023-04-10T07:56:07.277Z,58.83
2023-04-10T07:58:36.089Z,58.07
2023-04-10T08:01:06.065Z,57.91
2023-04-10T08:03:40.112Z,59.82
2023-04-10T08:06:10.513Z,60.03
2023-04-10T08:08:38.988Z,61.45
2023-04-10T08:11:09.488Z,61.93
2023-04-10T08:13:38.010Z,62.78
2023-04-10T08:16:09.098Z,62.08
2023-04-10T08:18:37.410Z,62.51
2023-04-10T08:21:06.570Z,62.22
2023-04-10T08:23:34.926Z,62.65
2023-04-10T08:26:03.357Z,61.57
2023-04-10T08:28:32.611Z,62.30
2023-04-10T08:31:01.021Z,61.96
2023-04-10T08:33:30.869Z,62.65
2023-04-10T08:35:59.371Z,63.32
2023-04-10T08:38:27.938Z,64.04
2023-04-10T08:40:56.592Z,64.11
2023-04-10T08:43:25.006Z,64.68
2023-04-10T08:45:53.964Z,64.42
2023-04-10T08:48:23.486Z,66.41
2023-04-10T08:50:53.877Z,68.03
2023-04-10T08:53:26.114Z,67.83
2023-04-10T08:55:54.544Z,67.20
2023-04-10T08:58:23.363Z,66.56
2023-04-10T09:00:52.560Z,68.34
2023-04-10T09:03:21.270Z,68.17
2023-04-10T09:05:49.636Z,69.58
2023-04-10T09:08:19.390Z,71.34
2023-04-10T09:10:47.716Z,72.43
2023-04-10T09:13:16.025Z,71.52
2023-04-10T09:16:01.360Z,71.13
2023-04-10T09:18:46.933Z,71.85
2023-04-10T09:21:17.609Z,69.18
2023-04-10T09:23:48.803Z,69.77
2023-04-10T09:26:28.273Z,71.65
2023-04-10T09:29:04.077Z,70.12
2023-04-10T09:31:34.806Z,71.04
2023-04-10T09:34:11.884Z,69.92
2023-04-10T09:36:41.879Z,70.19
2023-04-10T09:39:13.514Z,70.55
2023-04-10T09:41:52.317Z,69.37
2023-04-10T09:44:31.070Z,68.00
2023-04-10T09:46:59.689Z,68.76
2023-04-10T09:49:28.095Z,68.84
2023-04-10T09:51:56.474Z,68.80
2023-04-10T09:54:38.859Z,67.88
2023-04-10T09:57:08.437Z,66.13
2023-04-10T09:59:42.914Z,66.41
2023-04-10T10:02:12.939Z,66.41
2023-04-10T10:04:44.021Z,65.61
2023-04-10T10:07:12.599Z,66.83
2023-04-10T10:09:43.494Z,67.77
2023-04-10T10:12:14.155Z,69.34
2023-04-10T10:14:50.438Z,70.20
2023-04-10T10:17:21.826Z,70.67
2023-04-10T10:20:04.039Z,70.64
2023-04-10T10:22:33.713Z,71.30
2023-04-10T10:25:04.795Z,72.20
2023-04-10T10:27:33.844Z,71.22
2023-04-10T10:30:08.559Z,71.18
2023-04-10T10:32:47.948Z,72.28
2023-04-10T10:35:16.947Z,72.29
2023-04-10T10:37:46.452Z,70.80
2023-04-10T10:40:21.755Z,70.75
2023-04-10T10:42:59.118Z,69.26
2023-04-10T10:45:34.403Z,69.58
2023-04-10T10:48:03.082Z,71.05
2023-04-10T10:50:55.037Z,69.19
2023-04-10T10:53:38.082Z,68.80
2023-04-10T10:56:37.942Z,70.15
2023-04-10T10:59:06.318Z,68.84
2023-04-10T11:01:34.708Z,69.44
2023-04-10T11:04:44.005Z,69.53
2023-04-10T11:07:12.617Z,69.32
2023-04-10T11:09:51.309Z,69.00
2023-04-10T11:12:24.772Z,68.29
2023-04-10T11:15:01.025Z,68.23
2023-04-10T11:17:48.991Z,67.67
2023-04-10T11:20:18.109Z,68.11
2023-04-10T11:23:11.375Z,68.37
2023-04-10T11:25:53.298Z,68.68
2023-04-10T11:28:39.628Z,69.19
2023-04-10T11:31:22.876Z,69.67
2023-04-10T11:34:02.260Z,73.04
2023-04-10T11:36:30.770Z,75.13
2023-04-10T11:39:00.645Z,75.72
2023-04-10T11:41:31.026Z,75.51
2023-04-10T11:44:02.182Z,76.17
2023-04-10T11:46:31.269Z,76.84
2023-04-10T11:49:01.821Z,78.57
2023-04-10T11:51:31.250Z,79.41
2023-04-10T11:54:07.248Z,79.30
2023-04-10T11:56:36.768Z,80.20
2023-04-10T11:59:11.128Z,77.92
2023-04-10T12:01:42.515Z,78.72
2023-04-10T12:04:18.425Z,78.56
2023-04-10T12:06:47.740Z,78.24
2023-04-10T12:09:17.974Z,74.85
2023-04-10T12:11:53.991Z,74.70
2023-04-10T12:14:24.984Z,72.54
2023-04-10T12:16:53.993Z,71.06
2023-04-10T12:19:23.766Z,72.19
2023-04-10T12:21:52.150Z,73.93
2023-04-10T12:24:45.042Z,73.04
2023-04-10T12:27:20.340Z,71.56
2023-04-10T12:29:51.515Z,72.17
2023-04-10T12:32:20.184Z,70.70
2023-04-10T12:34:51.981Z,69.52
2023-04-10T12:37:20.735Z,67.54
2023-04-10T12:39:49.340Z,68.77
2023-04-10T12:42:19.641Z,68.18
2023-04-10T12:44:58.932Z,68.03
2023-04-10T12:47:28.501Z,67.13
2023-04-10T12:50:07.876Z,65.31
2023-04-10T12:52:36.966Z,65.24
2023-04-10T12:55:15.975Z,66.06
2023-04-10T12:57:46.147Z,65.46
2023-04-10T13:00:18.308Z,66.15
2023-04-10T13:02:48.017Z,65.48
2023-04-10T13:05:17.005Z,64.50
2023-04-10T13:07:45.601Z,63.94
2023-04-10T13:10:13.989Z,63.28
2023-04-10T13:12:43.730Z,63.20
2023-04-10T13:15:12.128Z,61.95
2023-04-10T13:17:42.106Z,61.54
2023-04-10T13:20:11.723Z,61.92
2023-04-10T13:22:40.172Z,62.32
2023-04-10T13:25:09.032Z,63.05
2023-04-10T13:27:37.878Z,62.54
2023-04-10T13:30:07.020Z,62.76
2023-04-10T13:32:35.450Z,62.46
2023-04-10T13:35:05.579Z,61.81
2023-04-10T13:37:33.937Z,60.86
2023-04-10T13:40:02.404Z,60.43
2023-04-10T13:42:31.139Z,59.73
2023-04-10T13:44:59.500Z,59.91
2023-04-10T13:47:28.221Z,59.92
2023-04-10T13:49:56.655Z,62.14
2023-04-10T13:52:26.406Z,64.10
2023-04-10T13:54:54.729Z,64.83
2023-04-10T13:57:23.224Z,66.52
2023-04-10T13:59:51.556Z,67.14
2023-04-10T14:02:20.101Z,66.36
2023-04-10T14:04:48.553Z,66.31
2023-04-10T14:07:17.249Z,67.45
2023-04-10T14:09:47.579Z,66.04
2023-04-10T14:12:16.944Z,66.16
2023-04-10T14:14:45.769Z,66.41
2023-04-10T14:17:14.079Z,66.25
2023-04-10T14:19:43.649Z,65.23
2023-04-10T14:22:11.943Z,65.48
2023-04-10T14:24:40.450Z,64.76
2023-04-10T14:27:12.779Z,65.47
2023-04-10T14:29:53.991Z,65.09
2023-04-10T14:32:23.545Z,65.60
2023-04-10T14:34:52.016Z,67.49
2023-04-10T14:37:22.913Z,69.16
2023-04-10T14:39:51.335Z,71.57
2023-04-10T14:42:21.564Z,73.86
2023-04-10T14:44:50.074Z,74.21
2023-04-10T14:47:18.465Z,75.89
2023-04-10T14:49:46.805Z,75.43
2023-04-10T14:52:15.273Z,76.02
2023-04-10T14:54:43.631Z,76.37
2023-04-10T14:57:13.180Z,78.52
2023-04-10T14:59:42.967Z,79.48
2023-04-10T15:02:11.397Z,80.08
2023-04-10T15:04:39.766Z,80.87
2023-04-10T15:07:08.365Z,81.56
2023-04-10T15:09:36.882Z,83.10
2023-04-10T15:12:05.614Z,82.84
2023-04-10T15:14:34.055Z,84.41
2023-04-10T15:17:03.899Z,85.17
2023-04-10T15:19:32.356Z,85.07
2023-04-10T15:22:00.867Z,85.35
2023-04-10T15:24:32.616Z,83.70
2023-04-10T15:27:08.871Z,84.00
2023-04-10T15:29:39.994Z,84.42
2023-04-10T15:32:10.122Z,85.51
2023-04-10T15:34:38.474Z,85.53
2023-04-10T15:37:07.189Z,85.05
2023-04-10T15:39:37.131Z,85.06
2023-04-10T15:42:06.129Z,84.46
2023-04-10T15:44:34.615Z,84.34
2023-04-10T15:47:03.125Z,82.24
2023-04-10T15:49:38.032Z,81.69
2023-04-10T15:52:07.523Z,79.81
2023-04-10T15:54:36.262Z,79.51
2023-04-10T15:57:05.029Z,79.20
2023-04-10T15:59:34.550Z,79.22
2023-04-10T16:02:03.121Z,77.66
2023-04-10T16:04:33.416Z,77.20
2023-04-10T16:07:02.032Z,77.24
2023-04-10T16:09:30.452Z,76.20
2023-04-10T16:11:59.496Z,74.76
2023-04-10T16:14:28.019Z,73.90
2023-04-10T16:16:56.476Z,73.71
2023-04-10T16:19:24.796Z,73.85
2023-04-10T16:21:54.544Z,74.15
2023-04-10T16:24:22.949Z,73.52
2023-04-10T16:26:51.312Z,73.42
2023-04-10T16:29:19.973Z,73.15
2023-04-10T16:31:48.437Z,73.46
2023-04-10T16:34:17.177Z,74.12
2023-04-10T16:36:45.585Z,73.68
2023-04-10T16:39:15.380Z,73.56
2023-04-10T16:41:43.750Z,73.89
2023-04-10T16:44:12.092Z,73.13
2023-04-10T16:46:40.536Z,72.79
2023-04-10T16:49:09.032Z,73.14
2023-04-10T16:51:37.373Z,73.89
2023-04-10T16:54:06.213Z,73.82
2023-04-10T16:56:36.042Z,73.80
2023-04-10T16:59:04.582Z,74.47
2023-04-10T17:01:35.276Z,74.83
2023-04-10T17:04:03.776Z,74.32
2023-04-10T17:06:32.184Z,74.04
2023-04-10T17:09:00.735Z,74.80
2023-04-10T17:11:29.272Z,74.62
2023-04-10T17:13:58.981Z,74.35
2023-04-10T17:16:28.502Z,73.85
2023-04-10T17:18:57.179Z,74.01
2023-04-10T17:21:27.292Z,74.03
2023-04-10T17:23:55.673Z,74.53
2023-04-10T17:26:24.862Z,75.09
2023-04-10T17:28:53.444Z,76.13
2023-04-10T17:31:23.621Z,76.35
2023-04-10T17:33:52.004Z,77.60
2023-04-10T17:36:20.905Z,78.03
2023-04-10T17:38:50.795Z,78.70
2023-04-10T17:41:21.042Z,79.63
2023-04-10T17:43:50.025Z,80.10
2023-04-10T17:46:18.498Z,81.55
2023-04-10T17:48:48.329Z,81.66
2023-04-10T17:51:16.746Z,83.10
2023-04-10T17:53:45.140Z,83.87
2023-04-10T17:56:20.089Z,82.67
2023-04-10T17:58:48.901Z,81.98
2023-04-10T18:01:23.630Z,82.15
2023-04-10T18:03:53.577Z,81.60
2023-04-10T18:06:22.013Z,82.32
2023-04-10T18:08:50.904Z,83.25
2023-04-10T18:11:19.268Z,84.37
2023-04-10T18:13:48.540Z,85.45
2023-04-10T18:16:17.672Z,86.94
2023-04-10T18:18:46.139Z,88.96
2023-04-10T18:21:16.436Z,95.35
2023-04-10T18:23:45.122Z,100.00
2023-04-10T18:26:14.048Z,100.00
2023-04-10T18:28:43.639Z,100.00
2023-04-10T18:31:14.841Z,100.00
2023-04-10T18:33:43.780Z,100.00
2023-04-10T18:36:14.175Z,100.00
2023-04-10T18:38:44.182Z,100.00
2023-04-10T18:41:12.664Z,100.00
2023-04-10T18:43:41.457Z,100.00
2023-04-10T18:46:10.814Z,100.00
2023-04-10T18:48:43.070Z,100.00
2023-04-10T18:51:12.349Z,100.00
2023-04-10T18:53:41.458Z,100.00
2023-04-10T18:56:11.457Z,100.00
2023-04-10T18:58:39.851Z,100.00
2023-04-10T19:01:10.707Z,100.00
2023-04-10T19:03:40.677Z,100.00
2023-04-10T19:06:10.167Z,100.00
2023-04-10T19:08:38.967Z,100.00
2023-04-10T19:11:07.975Z,100.00
2023-04-10T19:13:37.730Z,100.00
2023-04-10T19:16:06.509Z,100.00
2023-04-10T19:18:35.004Z,100.00
2023-04-10T19:21:04.285Z,100.00
2023-04-10T19:23:32.867Z,100.00
2023-04-10T19:26:01.170Z,100.00
2023-04-10T19:28:30.767Z,100.00
2023-04-10T19:31:00.618Z,100.00
2023-04-10T19:33:29.963Z,100.00
2023-04-10T19:35:59.229Z,100.00
2023-04-10T19:38:29.447Z,100.00
2023-04-10T19:40:58.533Z,100.00
2023-04-10T19:43:26.940Z,100.00
2023-04-10T19:45:56.347Z,100.00
2023-04-10T19:48:26.089Z,100.00
2023-04-10T19:50:55.485Z,100.00
2023-04-10T19:53:23.913Z,100.00
2023-04-10T19:55:52.409Z,100.00
2023-04-10T19:58:38.885Z,100.00
2023-04-10T20:01:08.953Z,100.00
2023-04-10T20:03:39.290Z,100.00
2023-04-10T20:06:08.794Z,100.00
2023-04-10T20:08:43.243Z,100.00
2023-04-10T20:11:11.636Z,100.00
2023-04-10T20:13:41.068Z,100.00
2023-04-10T20:16:09.748Z,100.00
2023-04-10T20:18:41.394Z,100.00
2023-04-10T20:21:09.838Z,100.00
2023-04-10T20:23:39.107Z,100.00
2023-04-10T20:26:08.736Z,100.00
2023-04-10T20:28:37.278Z,100.00
2023-04-10T20:31:05.855Z,100.00
2023-04-10T20:33:34.347Z,100.00
2023-04-10T20:36:04.562Z,100.00
2023-04-10T20:38:32.934Z,100.00
2023-04-10T20:41:01.453Z,100.00
2023-04-10T20:43:29.980Z,100.00
2023-04-10T20:45:58.622Z,100.00
2023-04-10T20:48:26.982Z,100.00
2023-04-10T20:50:55.289Z,100.00
2023-04-10T20:53:25.156Z,100.00
2023-04-10T20:55:54.146Z,100.00
2023-04-10T20:58:23.353Z,100.00
2023-04-10T21:00:53.100Z,100.00
2023-04-10T21:03:22.012Z,100.00
2023-04-10T21:05:52.750Z,100.00
2023-04-10T21:08:22.152Z,100.00
2023-04-10T21:10:51.921Z,100.00
2023-04-10T21:13:20.209Z,100.00
2023-04-10T21:15:50.633Z,100.00
2023-04-10T21:18:20.256Z,100.00
2023-04-10T21:20:48.725Z,100.00
2023-04-10T21:23:17.082Z,100.00
2023-04-10T21:25:54.407Z,100.00
2023-04-10T21:28:22.834Z,100.00
2023-04-10T21:30:51.440Z,100.00
2023-04-10T21:33:19.859Z,100.00
2023-04-10T21:35:49.215Z,100.00
2023-04-10T21:38:17.550Z,100.00
2023-04-10T21:40:53.666Z,100.00
2023-04-10T21:43:26.173Z,100.00
2023-04-10T21:45:55.010Z,100.00
2023-04-10T21:48:23.382Z,100.00
2023-04-10T21:50:53.015Z,100.00
2023-04-10T21:53:21.361Z,100.00
2023-04-10T21:55:50.285Z,100.00
2023-04-10T21:58:20.243Z,100.00
2023-04-10T22:00:49.999Z,100.00
2023-04-10T22:03:20.329Z,100.00
2023-04-10T22:05:50.305Z,100.00
2023-04-10T22:08:20.246Z,100.00
2023-04-10T22:10:48.954Z,100.00
2023-04-10T22:13:29.586Z,100.00
2023-04-10T22:16:02.194Z,100.00
2023-04-10T22:18:31.295Z,100.00
2023-04-10T22:21:01.782Z,100.00
2023-04-10T22:23:30.232Z,100.00
2023-04-10T22:26:01.088Z,100.00
2023-04-10T22:28:30.422Z,100.00
2023-04-10T22:31:00.301Z,100.00
2023-04-10T22:33:28.645Z,100.00
2023-04-10T22:35:57.038Z,100.00
2023-04-10T22:38:25.516Z,100.00
2023-04-10T22:40:56.199Z,100.00
2023-04-10T22:43:24.556Z,100.00
2023-04-10T22:45:52.995Z,100.00
2023-04-10T22:48:23.297Z,100.00
2023-04-10T22:50:51.743Z,100.00
2023-04-10T22:53:20.114Z,100.00
2023-04-10T22:55:48.563Z,100.00
2023-04-10T22:58:16.974Z,100.00
2023-04-10T23:00:45.385Z,100.00
2023-04-10T23:03:13.801Z,100.00
2023-04-10T23:05:43.694Z,100.00
2023-04-10T23:08:12.129Z,100.00
2023-04-10T23:10:40.404Z,100.00
2023-04-10T23:13:08.794Z,100.00
2023-04-10T23:15:37.213Z,100.00
2023-04-10T23:18:06.066Z,100.00
2023-04-10T23:20:34.401Z,100.00
2023-04-10T23:23:04.100Z,100.00
2023-04-10T23:25:32.511Z,100.00
2023-04-10T23:28:01.080Z,100.00
2023-04-10T23:30:29.592Z,100.00
2023-04-10T23:32:58.390Z,100.00
2023-04-10T23:35:28.304Z,100.00
2023-04-10T23:37:57.795Z,100.00
2023-04-10T23:40:27.532Z,100.00
2023-04-10T23:42:55.933Z,100.00
2023-04-10T23:45:24.249Z,100.00
2023-04-10T23:47:53.009Z,100.00
2023-04-10T23:50:21.447Z,100.00
2023-04-10T23:52:50.704Z,100.00
2023-04-10T23:55:19.987Z,100.00
2023-04-10T23:57:49.802Z,100.00
